sensor_id;sensor_type;location;lat;lon;timestamp;temperature;humidity
23124;DHT22;11731;48.592;8.858;2023-05-07T00:01:41;14.90;99.90
23124;DHT22;11731;48.592;8.858;2023-05-07T00:04:08;14.80;99.90
23124;DHT22;11731;48.592;8.858;2023-05-07T00:06:35;14.60;99.90
23124;DHT22;11731;48.592;8.858;2023-05-07T00:09:02;14.70;99.90
23124;DHT22;11731;48.592;8.858;2023-05-07T00:14:43;15.10;99.90
23124;DHT22;11731;48.592;8.858;2023-05-07T00:17:11;15.40;99.90
23124;DHT22;11731;48.592;8.858;2023-05-07T00:19:37;15.40;99.90
23124;DHT22;11731;48.592;8.858;2023-05-07T00:22:04;15.50;99.90
23124;DHT22;11731;48.592;8.858;2023-05-07T00:24:31;15.20;99.90
23124;DHT22;11731;48.592;8.858;2023-05-07T00:27:12;15.10;99.90
23124;DHT22;11731;48.592;8.858;2023-05-07T00:29:39;15.20;99.90
23124;DHT22;11731;48.592;8.858;2023-05-07T00:32:09;15.20;99.90
23124;DHT22;11731;48.592;8.858;2023-05-07T00:34:36;15.20;99.90
23124;DHT22;11731;48.592;8.858;2023-05-07T00:37:05;15.30;99.90
23124;DHT22;11731;48.592;8.858;2023-05-07T00:42:28;15.20;99.90
23124;DHT22;11731;48.592;8.858;2023-05-07T00:44:55;14.90;99.90
23124;DHT22;11731;48.592;8.858;2023-05-07T00:47:24;14.80;99.90
23124;DHT22;11731;48.592;8.858;2023-05-07T00:49:52;14.70;99.90
23124;DHT22;11731;48.592;8.858;2023-05-07T00:52:22;14.80;99.90
23124;DHT22;11731;48.592;8.858;2023-05-07T00:55:28;14.80;99.90
23124;DHT22;11731;48.592;8.858;2023-05-07T00:58:36;14.90;99.90
23124;DHT22;11731;48.592;8.858;2023-05-07T01:01:03;14.90;99.90
23124;DHT22;11731;48.592;8.858;2023-05-07T01:03:33;14.90;99.90
23124;DHT22;11731;48.592;8.858;2023-05-07T01:06:14;15.10;99.90
23124;DHT22;11731;48.592;8.858;2023-05-07T01:08:43;15.00;99.90
23124;DHT22;11731;48.592;8.858;2023-05-07T01:11:36;15.10;99.90
23124;DHT22;11731;48.592;8.858;2023-05-07T01:14:04;14.90;99.90
23124;DHT22;11731;48.592;8.858;2023-05-07T01:16:31;14.90;99.90
23124;DHT22;11731;48.592;8.858;2023-05-07T01:19:01;14.70;99.90
23124;DHT22;11731;48.592;8.858;2023-05-07T01:21:33;14.70;99.90
23124;DHT22;11731;48.592;8.858;2023-05-07T01:24:02;14.70;99.90
23124;DHT22;11731;48.592;8.858;2023-05-07T01:26:29;14.40;99.90
23124;DHT22;11731;48.592;8.858;2023-05-07T01:28:56;14.50;99.90
23124;DHT22;11731;48.592;8.858;2023-05-07T01:31:27;14.60;99.90
23124;DHT22;11731;48.592;8.858;2023-05-07T01:34:15;14.40;99.90
23124;DHT22;11731;48.592;8.858;2023-05-07T01:36:44;14.10;99.90
23124;DHT22;11731;48.592;8.858;2023-05-07T01:39:15;14.20;99.90
23124;DHT22;11731;48.592;8.858;2023-05-07T01:41:43;14.30;99.90
23124;DHT22;11731;48.592;8.858;2023-05-07T01:47:44;14.30;99.90
23124;DHT22;11731;48.592;8.858;2023-05-07T01:50:12;14.30;99.90
23124;DHT22;11731;48.592;8.858;2023-05-07T01:52:39;14.40;99.90
23124;DHT22;11731;48.592;8.858;2023-05-07T01:55:08;14.40;99.90
23124;DHT22;11731;48.592;8.858;2023-05-07T01:57:35;14.10;99.90
23124;DHT22;11731;48.592;8.858;2023-05-07T02:00:02;13.80;99.90
23124;DHT22;11731;48.592;8.858;2023-05-07T02:02:34;14.00;99.90
23124;DHT22;11731;48.592;8.858;2023-05-07T02:05:01;14.10;99.90
23124;DHT22;11731;48.592;8.858;2023-05-07T02:07:28;13.80;99.90
23124;DHT22;11731;48.592;8.858;2023-05-07T02:10:18;13.60;99.90
23124;DHT22;11731;48.592;8.858;2023-05-07T02:15:21;14.00;99.90
23124;DHT22;11731;48.592;8.858;2023-05-07T02:18:02;14.10;99.90
23124;DHT22;11731;48.592;8.858;2023-05-07T02:20:29;14.30;99.90
23124;DHT22;11731;48.592;8.858;2023-05-07T02:23:04;14.30;99.90
23124;DHT22;11731;48.592;8.858;2023-05-07T02:28:39;14.20;99.90
23124;DHT22;11731;48.592;8.858;2023-05-07T02:31:06;14.20;99.90
23124;DHT22;11731;48.592;8.858;2023-05-07T02:33:33;14.00;99.90
23124;DHT22;11731;48.592;8.858;2023-05-07T02:36:08;13.80;99.90
23124;DHT22;11731;48.592;8.858;2023-05-07T02:38:35;13.80;99.90
23124;DHT22;11731;48.592;8.858;2023-05-07T02:41:07;13.80;99.90
23124;DHT22;11731;48.592;8.858;2023-05-07T02:43:35;13.70;99.90
23124;DHT22;11731;48.592;8.858;2023-05-07T02:46:05;13.80;99.90
23124;DHT22;11731;48.592;8.858;2023-05-07T02:48:32;13.80;99.90
23124;DHT22;11731;48.592;8.858;2023-05-07T02:51:00;13.70;99.90
23124;DHT22;11731;48.592;8.858;2023-05-07T02:53:27;13.70;99.90
23124;DHT22;11731;48.592;8.858;2023-05-07T02:55:55;13.60;99.90
23124;DHT22;11731;48.592;8.858;2023-05-07T02:58:22;13.40;99.90
23124;DHT22;11731;48.592;8.858;2023-05-07T03:00:49;13.20;99.90
23124;DHT22;11731;48.592;8.858;2023-05-07T03:03:18;13.20;99.90
23124;DHT22;11731;48.592;8.858;2023-05-07T03:05:44;13.40;99.90
23124;DHT22;11731;48.592;8.858;2023-05-07T03:08:12;13.30;99.90
23124;DHT22;11731;48.592;8.858;2023-05-07T03:10:39;13.20;99.90
23124;DHT22;11731;48.592;8.858;2023-05-07T03:13:05;13.50;99.90
23124;DHT22;11731;48.592;8.858;2023-05-07T03:15:32;13.80;99.90
23124;DHT22;11731;48.592;8.858;2023-05-07T03:17:59;13.90;99.90
23124;DHT22;11731;48.592;8.858;2023-05-07T03:20:27;14.10;99.90
23124;DHT22;11731;48.592;8.858;2023-05-07T03:22:54;14.20;99.90
23124;DHT22;11731;48.592;8.858;2023-05-07T03:25:21;14.20;99.90
23124;DHT22;11731;48.592;8.858;2023-05-07T03:27:48;14.40;99.90
23124;DHT22;11731;48.592;8.858;2023-05-07T03:30:15;14.30;99.90
23124;DHT22;11731;48.592;8.858;2023-05-07T03:32:42;14.20;99.90
23124;DHT22;11731;48.592;8.858;2023-05-07T03:35:09;13.90;99.90
23124;DHT22;11731;48.592;8.858;2023-05-07T03:37:37;13.70;99.90
23124;DHT22;11731;48.592;8.858;2023-05-07T03:40:05;13.40;99.90
23124;DHT22;11731;48.592;8.858;2023-05-07T03:42:33;13.00;99.90
23124;DHT22;11731;48.592;8.858;2023-05-07T03:45:00;13.10;99.90
23124;DHT22;11731;48.592;8.858;2023-05-07T03:47:27;13.10;99.90
23124;DHT22;11731;48.592;8.858;2023-05-07T03:49:53;13.10;99.90
23124;DHT22;11731;48.592;8.858;2023-05-07T03:52:20;13.10;99.90
23124;DHT22;11731;48.592;8.858;2023-05-07T03:54:52;13.20;99.90
23124;DHT22;11731;48.592;8.858;2023-05-07T03:57:19;13.10;99.90
23124;DHT22;11731;48.592;8.858;2023-05-07T03:59:46;13.10;99.90
23124;DHT22;11731;48.592;8.858;2023-05-07T04:02:13;13.20;99.90
23124;DHT22;11731;48.592;8.858;2023-05-07T04:04:40;13.30;99.90
23124;DHT22;11731;48.592;8.858;2023-05-07T04:07:07;13.50;99.90
23124;DHT22;11731;48.592;8.858;2023-05-07T04:09:33;13.70;99.90
23124;DHT22;11731;48.592;8.858;2023-05-07T04:12:02;13.40;99.90
23124;DHT22;11731;48.592;8.858;2023-05-07T04:14:29;13.40;99.90
23124;DHT22;11731;48.592;8.858;2023-05-07T04:16:57;13.50;99.90
23124;DHT22;11731;48.592;8.858;2023-05-07T04:19:24;13.50;99.90
23124;DHT22;11731;48.592;8.858;2023-05-07T04:21:51;13.60;99.90
23124;DHT22;11731;48.592;8.858;2023-05-07T04:24:18;13.60;99.90
23124;DHT22;11731;48.592;8.858;2023-05-07T04:26:45;13.50;99.90
23124;DHT22;11731;48.592;8.858;2023-05-07T04:29:13;13.50;99.90
23124;DHT22;11731;48.592;8.858;2023-05-07T04:31:40;13.80;99.90
23124;DHT22;11731;48.592;8.858;2023-05-07T04:34:09;14.00;99.90
23124;DHT22;11731;48.592;8.858;2023-05-07T04:36:37;14.10;99.90
23124;DHT22;11731;48.592;8.858;2023-05-07T04:39:04;14.10;99.90
23124;DHT22;11731;48.592;8.858;2023-05-07T04:41:31;14.10;99.90
23124;DHT22;11731;48.592;8.858;2023-05-07T04:43:58;14.00;99.90
23124;DHT22;11731;48.592;8.858;2023-05-07T04:46:26;14.10;99.90
23124;DHT22;11731;48.592;8.858;2023-05-07T04:48:53;14.10;99.90
23124;DHT22;11731;48.592;8.858;2023-05-07T04:51:20;14.10;99.90
23124;DHT22;11731;48.592;8.858;2023-05-07T04:53:47;14.20;99.90
23124;DHT22;11731;48.592;8.858;2023-05-07T04:56:14;14.10;99.90
23124;DHT22;11731;48.592;8.858;2023-05-07T04:58:41;14.00;99.90
23124;DHT22;11731;48.592;8.858;2023-05-07T05:01:08;14.10;99.90
23124;DHT22;11731;48.592;8.858;2023-05-07T05:03:36;14.00;99.90
23124;DHT22;11731;48.592;8.858;2023-05-07T05:06:03;14.10;99.90
23124;DHT22;11731;48.592;8.858;2023-05-07T05:08:30;14.00;99.90
23124;DHT22;11731;48.592;8.858;2023-05-07T05:10:57;14.10;99.90
23124;DHT22;11731;48.592;8.858;2023-05-07T05:13:24;14.40;99.90
23124;DHT22;11731;48.592;8.858;2023-05-07T05:15:50;14.80;99.90
23124;DHT22;11731;48.592;8.858;2023-05-07T05:18:17;14.60;99.90
23124;DHT22;11731;48.592;8.858;2023-05-07T05:20:45;14.50;99.90
23124;DHT22;11731;48.592;8.858;2023-05-07T05:23:12;14.60;99.90
23124;DHT22;11731;48.592;8.858;2023-05-07T05:25:39;14.70;99.90
23124;DHT22;11731;48.592;8.858;2023-05-07T05:28:06;14.70;99.90
23124;DHT22;11731;48.592;8.858;2023-05-07T05:30:33;15.00;99.90
23124;DHT22;11731;48.592;8.858;2023-05-07T05:33:00;15.20;99.90
23124;DHT22;11731;48.592;8.858;2023-05-07T05:35:26;15.60;99.90
23124;DHT22;11731;48.592;8.858;2023-05-07T05:37:55;15.80;99.90
23124;DHT22;11731;48.592;8.858;2023-05-07T05:40:21;16.20;99.90
23124;DHT22;11731;48.592;8.858;2023-05-07T05:42:48;16.40;99.90
23124;DHT22;11731;48.592;8.858;2023-05-07T05:45:15;16.70;99.90
23124;DHT22;11731;48.592;8.858;2023-05-07T05:47:43;17.10;99.90
23124;DHT22;11731;48.592;8.858;2023-05-07T05:50:10;17.30;99.90
23124;DHT22;11731;48.592;8.858;2023-05-07T05:52:37;17.40;99.90
23124;DHT22;11731;48.592;8.858;2023-05-07T05:55:06;17.70;99.90
23124;DHT22;11731;48.592;8.858;2023-05-07T05:57:33;17.90;99.90
23124;DHT22;11731;48.592;8.858;2023-05-07T06:00:00;18.00;99.90
23124;DHT22;11731;48.592;8.858;2023-05-07T06:02:28;18.10;99.90
23124;DHT22;11731;48.592;8.858;2023-05-07T06:04:54;17.90;99.90
23124;DHT22;11731;48.592;8.858;2023-05-07T06:07:21;18.00;99.90
23124;DHT22;11731;48.592;8.858;2023-05-07T06:09:48;18.10;99.90
23124;DHT22;11731;48.592;8.858;2023-05-07T06:12:16;18.10;99.90
23124;DHT22;11731;48.592;8.858;2023-05-07T06:14:43;17.90;99.90
23124;DHT22;11731;48.592;8.858;2023-05-07T06:17:10;17.80;99.90
23124;DHT22;11731;48.592;8.858;2023-05-07T06:19:37;17.60;99.90
23124;DHT22;11731;48.592;8.858;2023-05-07T06:22:04;17.70;99.90
23124;DHT22;11731;48.592;8.858;2023-05-07T06:24:31;18.00;99.90
23124;DHT22;11731;48.592;8.858;2023-05-07T06:26:57;18.20;99.90
23124;DHT22;11731;48.592;8.858;2023-05-07T06:29:26;18.30;99.90
23124;DHT22;11731;48.592;8.858;2023-05-07T06:31:53;18.00;99.90
23124;DHT22;11731;48.592;8.858;2023-05-07T06:34:20;18.00;99.90
23124;DHT22;11731;48.592;8.858;2023-05-07T06:36:47;18.00;99.90
23124;DHT22;11731;48.592;8.858;2023-05-07T06:39:13;18.40;99.90
23124;DHT22;11731;48.592;8.858;2023-05-07T06:41:40;18.40;99.90
23124;DHT22;11731;48.592;8.858;2023-05-07T06:44:07;18.70;99.90
23124;DHT22;11731;48.592;8.858;2023-05-07T06:46:35;19.00;99.90
23124;DHT22;11731;48.592;8.858;2023-05-07T06:49:02;18.60;99.90
23124;DHT22;11731;48.592;8.858;2023-05-07T06:51:29;18.30;99.90
23124;DHT22;11731;48.592;8.858;2023-05-07T06:53:56;18.10;99.90
23124;DHT22;11731;48.592;8.858;2023-05-07T06:56:23;17.90;99.90
23124;DHT22;11731;48.592;8.858;2023-05-07T06:58:50;18.00;99.90
23124;DHT22;11731;48.592;8.858;2023-05-07T07:01:17;18.00;99.90
23124;DHT22;11731;48.592;8.858;2023-05-07T07:03:45;17.90;99.90
23124;DHT22;11731;48.592;8.858;2023-05-07T07:06:12;18.50;99.90
23124;DHT22;11731;48.592;8.858;2023-05-07T07:08:39;19.00;99.90
23124;DHT22;11731;48.592;8.858;2023-05-07T07:11:06;19.20;99.90
23124;DHT22;11731;48.592;8.858;2023-05-07T07:13:32;19.40;99.90
23124;DHT22;11731;48.592;8.858;2023-05-07T07:16:00;19.40;99.90
23124;DHT22;11731;48.592;8.858;2023-05-07T07:18:26;19.80;99.90
23124;DHT22;11731;48.592;8.858;2023-05-07T07:20:55;20.30;99.90
23124;DHT22;11731;48.592;8.858;2023-05-07T07:23:22;20.20;99.90
23124;DHT22;11731;48.592;8.858;2023-05-07T07:25:48;20.10;99.90
23124;DHT22;11731;48.592;8.858;2023-05-07T07:28:16;20.40;99.90
23124;DHT22;11731;48.592;8.858;2023-05-07T07:30:43;20.70;99.90
23124;DHT22;11731;48.592;8.858;2023-05-07T07:33:10;20.70;99.90
23124;DHT22;11731;48.592;8.858;2023-05-07T07:35:37;21.00;99.90
23124;DHT22;11731;48.592;8.858;2023-05-07T07:38:05;20.80;99.90
23124;DHT22;11731;48.592;8.858;2023-05-07T07:40:34;20.80;99.90
23124;DHT22;11731;48.592;8.858;2023-05-07T07:43:01;21.00;99.90
23124;DHT22;11731;48.592;8.858;2023-05-07T07:45:28;20.80;99.90
23124;DHT22;11731;48.592;8.858;2023-05-07T07:47:55;21.30;99.50
23124;DHT22;11731;48.592;8.858;2023-05-07T07:50:22;21.50;99.00
23124;DHT22;11731;48.592;8.858;2023-05-07T07:52:49;21.30;98.90
23124;DHT22;11731;48.592;8.858;2023-05-07T07:55:20;20.70;99.10
23124;DHT22;11731;48.592;8.858;2023-05-07T07:57:48;20.50;99.90
23124;DHT22;11731;48.592;8.858;2023-05-07T08:00:16;21.10;99.20
23124;DHT22;11731;48.592;8.858;2023-05-07T08:02:43;21.50;98.60
23124;DHT22;11731;48.592;8.858;2023-05-07T08:05:10;21.70;98.60
23124;DHT22;11731;48.592;8.858;2023-05-07T08:07:37;22.00;98.40
23124;DHT22;11731;48.592;8.858;2023-05-07T08:10:06;21.80;99.10
23124;DHT22;11731;48.592;8.858;2023-05-07T08:12:35;21.90;98.90
23124;DHT22;11731;48.592;8.858;2023-05-07T08:15:03;22.20;98.30
23124;DHT22;11731;48.592;8.858;2023-05-07T08:17:30;22.20;98.80
23124;DHT22;11731;48.592;8.858;2023-05-07T08:19:57;22.10;98.60
23124;DHT22;11731;48.592;8.858;2023-05-07T08:22:24;22.00;98.80
23124;DHT22;11731;48.592;8.858;2023-05-07T08:24:51;22.00;98.40
23124;DHT22;11731;48.592;8.858;2023-05-07T08:27:19;22.10;98.30
23124;DHT22;11731;48.592;8.858;2023-05-07T08:29:47;21.90;98.20
23124;DHT22;11731;48.592;8.858;2023-05-07T08:32:14;21.80;98.40
23124;DHT22;11731;48.592;8.858;2023-05-07T08:34:41;21.80;98.80
23124;DHT22;11731;48.592;8.858;2023-05-07T08:37:08;21.80;98.80
23124;DHT22;11731;48.592;8.858;2023-05-07T08:39:35;22.30;98.50
23124;DHT22;11731;48.592;8.858;2023-05-07T08:42:03;22.90;98.50
23124;DHT22;11731;48.592;8.858;2023-05-07T08:44:33;22.80;98.00
23124;DHT22;11731;48.592;8.858;2023-05-07T08:47:02;22.20;98.70
23124;DHT22;11731;48.592;8.858;2023-05-07T08:49:34;21.90;99.10
23124;DHT22;11731;48.592;8.858;2023-05-07T08:52:02;21.50;99.80
23124;DHT22;11731;48.592;8.858;2023-05-07T08:54:43;21.60;99.80
23124;DHT22;11731;48.592;8.858;2023-05-07T08:57:10;21.80;99.40
23124;DHT22;11731;48.592;8.858;2023-05-07T08:59:37;21.90;99.70
23124;DHT22;11731;48.592;8.858;2023-05-07T09:02:06;22.00;99.80
23124;DHT22;11731;48.592;8.858;2023-05-07T09:04:34;21.90;99.70
23124;DHT22;11731;48.592;8.858;2023-05-07T09:07:01;21.90;99.90
23124;DHT22;11731;48.592;8.858;2023-05-07T09:09:32;22.20;99.30
23124;DHT22;11731;48.592;8.858;2023-05-07T09:11:59;22.00;99.70
23124;DHT22;11731;48.592;8.858;2023-05-07T09:14:27;21.80;99.30
23124;DHT22;11731;48.592;8.858;2023-05-07T09:16:54;21.90;98.50
23124;DHT22;11731;48.592;8.858;2023-05-07T09:19:24;22.00;98.90
23124;DHT22;11731;48.592;8.858;2023-05-07T09:21:58;22.40;98.40
23124;DHT22;11731;48.592;8.858;2023-05-07T09:24:25;22.80;97.30
23124;DHT22;11731;48.592;8.858;2023-05-07T09:26:53;23.30;97.10
23124;DHT22;11731;48.592;8.858;2023-05-07T09:29:21;23.60;97.50
23124;DHT22;11731;48.592;8.858;2023-05-07T09:31:48;23.60;97.30
23124;DHT22;11731;48.592;8.858;2023-05-07T09:34:14;23.60;97.30
23124;DHT22;11731;48.592;8.858;2023-05-07T09:36:43;23.80;96.70
23124;DHT22;11731;48.592;8.858;2023-05-07T09:39:10;24.30;95.90
23124;DHT22;11731;48.592;8.858;2023-05-07T09:41:44;24.20;96.00
23124;DHT22;11731;48.592;8.858;2023-05-07T09:44:11;23.80;96.50
23124;DHT22;11731;48.592;8.858;2023-05-07T09:46:38;23.70;96.90
23124;DHT22;11731;48.592;8.858;2023-05-07T09:49:07;23.80;96.80
23124;DHT22;11731;48.592;8.858;2023-05-07T09:51:43;24.50;96.00
23124;DHT22;11731;48.592;8.858;2023-05-07T09:54:13;24.70;95.70
23124;DHT22;11731;48.592;8.858;2023-05-07T09:56:40;24.80;95.70
23124;DHT22;11731;48.592;8.858;2023-05-07T09:59:10;25.30;95.00
23124;DHT22;11731;48.592;8.858;2023-05-07T10:01:41;25.60;94.30
23124;DHT22;11731;48.592;8.858;2023-05-07T10:04:09;25.40;94.20
23124;DHT22;11731;48.592;8.858;2023-05-07T10:06:36;25.30;94.20
23124;DHT22;11731;48.592;8.858;2023-05-07T10:09:05;25.80;94.20
23124;DHT22;11731;48.592;8.858;2023-05-07T10:11:34;25.60;94.80
23124;DHT22;11731;48.592;8.858;2023-05-07T10:14:01;25.90;93.40
23124;DHT22;11731;48.592;8.858;2023-05-07T10:16:31;25.80;93.70
23124;DHT22;11731;48.592;8.858;2023-05-07T10:19:02;25.30;94.60
23124;DHT22;11731;48.592;8.858;2023-05-07T10:21:30;25.50;94.20
23124;DHT22;11731;48.592;8.858;2023-05-07T10:23:59;25.80;94.40
23124;DHT22;11731;48.592;8.858;2023-05-07T10:26:28;26.20;92.80
23124;DHT22;11731;48.592;8.858;2023-05-07T10:29:01;26.10;93.20
23124;DHT22;11731;48.592;8.858;2023-05-07T10:31:44;26.30;92.90
23124;DHT22;11731;48.592;8.858;2023-05-07T10:34:16;26.30;93.00
23124;DHT22;11731;48.592;8.858;2023-05-07T10:36:44;26.30;92.90
23124;DHT22;11731;48.592;8.858;2023-05-07T10:39:11;26.20;92.90
23124;DHT22;11731;48.592;8.858;2023-05-07T10:41:39;26.20;92.50
23124;DHT22;11731;48.592;8.858;2023-05-07T10:44:07;26.10;91.90
23124;DHT22;11731;48.592;8.858;2023-05-07T10:46:34;26.40;92.50
23124;DHT22;11731;48.592;8.858;2023-05-07T10:49:10;27.00;91.50
23124;DHT22;11731;48.592;8.858;2023-05-07T10:51:41;26.90;90.90
23124;DHT22;11731;48.592;8.858;2023-05-07T10:54:21;27.30;90.70
23124;DHT22;11731;48.592;8.858;2023-05-07T10:56:49;27.00;90.50
23124;DHT22;11731;48.592;8.858;2023-05-07T10:59:37;27.00;91.00
23124;DHT22;11731;48.592;8.858;2023-05-07T11:02:10;27.00;90.00
23124;DHT22;11731;48.592;8.858;2023-05-07T11:04:39;27.40;89.40
23124;DHT22;11731;48.592;8.858;2023-05-07T11:07:30;27.80;90.60
23124;DHT22;11731;48.592;8.858;2023-05-07T11:09:58;28.00;88.20
23124;DHT22;11731;48.592;8.858;2023-05-07T11:12:49;28.50;85.70
23124;DHT22;11731;48.592;8.858;2023-05-07T11:15:36;28.30;87.10
23124;DHT22;11731;48.592;8.858;2023-05-07T11:18:03;27.50;88.10
23124;DHT22;11731;48.592;8.858;2023-05-07T11:20:58;26.60;90.50
23124;DHT22;11731;48.592;8.858;2023-05-07T11:23:57;26.30;90.80
23124;DHT22;11731;48.592;8.858;2023-05-07T11:26:28;26.30;89.90
23124;DHT22;11731;48.592;8.858;2023-05-07T11:28:55;26.30;90.60
23124;DHT22;11731;48.592;8.858;2023-05-07T11:31:26;26.30;89.30
23124;DHT22;11731;48.592;8.858;2023-05-07T11:33:54;26.10;91.30
23124;DHT22;11731;48.592;8.858;2023-05-07T11:36:23;25.90;91.70
23124;DHT22;11731;48.592;8.858;2023-05-07T11:38:50;25.10;92.40
23124;DHT22;11731;48.592;8.858;2023-05-07T11:41:17;24.80;92.20
23124;DHT22;11731;48.592;8.858;2023-05-07T11:43:59;25.10;92.80
23124;DHT22;11731;48.592;8.858;2023-05-07T11:46:28;25.40;92.20
23124;DHT22;11731;48.592;8.858;2023-05-07T11:48:56;25.30;92.10
23124;DHT22;11731;48.592;8.858;2023-05-07T11:51:24;25.30;91.60
23124;DHT22;11731;48.592;8.858;2023-05-07T11:53:52;24.50;92.10
23124;DHT22;11731;48.592;8.858;2023-05-07T11:56:19;23.10;94.40
23124;DHT22;11731;48.592;8.858;2023-05-07T11:58:47;22.50;95.90
23124;DHT22;11731;48.592;8.858;2023-05-07T12:01:15;21.80;97.20
23124;DHT22;11731;48.592;8.858;2023-05-07T12:03:45;21.30;98.40
23124;DHT22;11731;48.592;8.858;2023-05-07T12:06:14;20.90;97.90
23124;DHT22;11731;48.592;8.858;2023-05-07T12:08:42;20.50;98.20
23124;DHT22;11731;48.592;8.858;2023-05-07T12:11:11;20.30;99.30
23124;DHT22;11731;48.592;8.858;2023-05-07T12:13:39;20.00;99.90
23124;DHT22;11731;48.592;8.858;2023-05-07T12:16:06;19.60;99.90
23124;DHT22;11731;48.592;8.858;2023-05-07T12:18:35;19.40;99.90
23124;DHT22;11731;48.592;8.858;2023-05-07T12:21:04;19.40;99.90
23124;DHT22;11731;48.592;8.858;2023-05-07T12:23:31;19.50;99.90
23124;DHT22;11731;48.592;8.858;2023-05-07T12:25:59;19.60;99.90
23124;DHT22;11731;48.592;8.858;2023-05-07T12:28:26;19.80;99.90
23124;DHT22;11731;48.592;8.858;2023-05-07T12:30:53;19.90;99.90
23124;DHT22;11731;48.592;8.858;2023-05-07T12:33:25;20.30;99.90
23124;DHT22;11731;48.592;8.858;2023-05-07T12:35:54;20.50;99.90
23124;DHT22;11731;48.592;8.858;2023-05-07T12:38:23;20.60;99.90
23124;DHT22;11731;48.592;8.858;2023-05-07T12:40:53;20.60;99.90
23124;DHT22;11731;48.592;8.858;2023-05-07T12:43:21;20.50;99.90
23124;DHT22;11731;48.592;8.858;2023-05-07T12:45:50;20.70;99.90
23124;DHT22;11731;48.592;8.858;2023-05-07T12:48:17;21.00;99.90
23124;DHT22;11731;48.592;8.858;2023-05-07T12:50:48;21.40;99.90
23124;DHT22;11731;48.592;8.858;2023-05-07T12:53:15;20.60;99.90
23124;DHT22;11731;48.592;8.858;2023-05-07T12:55:45;19.80;99.90
23124;DHT22;11731;48.592;8.858;2023-05-07T12:58:19;19.40;99.90
23124;DHT22;11731;48.592;8.858;2023-05-07T13:00:49;18.90;99.90
23124;DHT22;11731;48.592;8.858;2023-05-07T13:03:23;18.40;99.90
23124;DHT22;11731;48.592;8.858;2023-05-07T13:05:50;17.80;99.90
23124;DHT22;11731;48.592;8.858;2023-05-07T13:08:25;17.70;99.90
23124;DHT22;11731;48.592;8.858;2023-05-07T13:10:53;17.10;99.90
23124;DHT22;11731;48.592;8.858;2023-05-07T13:13:20;16.50;99.90
23124;DHT22;11731;48.592;8.858;2023-05-07T13:15:47;16.20;99.90
23124;DHT22;11731;48.592;8.858;2023-05-07T13:18:14;16.10;99.90
23124;DHT22;11731;48.592;8.858;2023-05-07T13:20:41;15.60;99.90
23124;DHT22;11731;48.592;8.858;2023-05-07T13:23:08;15.40;99.90
23124;DHT22;11731;48.592;8.858;2023-05-07T13:25:35;15.70;99.90
23124;DHT22;11731;48.592;8.858;2023-05-07T13:28:04;16.40;99.90
23124;DHT22;11731;48.592;8.858;2023-05-07T13:30:30;16.70;99.90
23124;DHT22;11731;48.592;8.858;2023-05-07T13:32:57;16.50;99.90
23124;DHT22;11731;48.592;8.858;2023-05-07T13:35:24;16.00;99.90
23124;DHT22;11731;48.592;8.858;2023-05-07T13:37:51;16.00;99.90
23124;DHT22;11731;48.592;8.858;2023-05-07T13:40:20;16.40;99.90
23124;DHT22;11731;48.592;8.858;2023-05-07T13:42:47;16.70;99.90
23124;DHT22;11731;48.592;8.858;2023-05-07T13:45:15;16.80;99.90
23124;DHT22;11731;48.592;8.858;2023-05-07T13:47:42;17.00;99.90
23124;DHT22;11731;48.592;8.858;2023-05-07T13:50:10;16.90;99.90
23124;DHT22;11731;48.592;8.858;2023-05-07T13:52:39;16.90;99.90
23124;DHT22;11731;48.592;8.858;2023-05-07T13:55:08;17.00;99.90
23124;DHT22;11731;48.592;8.858;2023-05-07T13:57:35;17.20;99.90
23124;DHT22;11731;48.592;8.858;2023-05-07T14:00:03;17.40;99.90
23124;DHT22;11731;48.592;8.858;2023-05-07T14:02:32;17.60;99.90
23124;DHT22;11731;48.592;8.858;2023-05-07T14:04:58;17.70;99.90
23124;DHT22;11731;48.592;8.858;2023-05-07T14:07:25;17.70;99.90
23124;DHT22;11731;48.592;8.858;2023-05-07T14:09:52;17.70;99.90
23124;DHT22;11731;48.592;8.858;2023-05-07T14:12:19;17.90;99.90
23124;DHT22;11731;48.592;8.858;2023-05-07T14:14:46;18.20;99.90
23124;DHT22;11731;48.592;8.858;2023-05-07T14:17:15;18.30;99.90
23124;DHT22;11731;48.592;8.858;2023-05-07T14:19:43;18.40;99.90
23124;DHT22;11731;48.592;8.858;2023-05-07T14:22:10;18.40;99.90
23124;DHT22;11731;48.592;8.858;2023-05-07T14:24:37;18.40;99.90
23124;DHT22;11731;48.592;8.858;2023-05-07T14:27:05;18.40;99.90
23124;DHT22;11731;48.592;8.858;2023-05-07T14:29:32;18.20;99.90
23124;DHT22;11731;48.592;8.858;2023-05-07T14:32:00;17.90;99.90
23124;DHT22;11731;48.592;8.858;2023-05-07T14:34:27;17.60;99.90
23124;DHT22;11731;48.592;8.858;2023-05-07T14:36:56;17.40;99.90
23124;DHT22;11731;48.592;8.858;2023-05-07T14:39:22;17.20;99.90
23124;DHT22;11731;48.592;8.858;2023-05-07T14:41:49;17.20;99.90
23124;DHT22;11731;48.592;8.858;2023-05-07T14:44:16;17.50;99.90
23124;DHT22;11731;48.592;8.858;2023-05-07T14:46:43;17.90;99.90
23124;DHT22;11731;48.592;8.858;2023-05-07T14:49:10;17.40;99.90
23124;DHT22;11731;48.592;8.858;2023-05-07T14:51:42;17.20;99.90
23124;DHT22;11731;48.592;8.858;2023-05-07T14:54:11;17.20;99.90
23124;DHT22;11731;48.592;8.858;2023-05-07T14:56:38;17.10;99.90
23124;DHT22;11731;48.592;8.858;2023-05-07T14:59:05;17.30;99.90
23124;DHT22;11731;48.592;8.858;2023-05-07T15:01:32;17.90;99.90
23124;DHT22;11731;48.592;8.858;2023-05-07T15:03:59;18.30;99.90
23124;DHT22;11731;48.592;8.858;2023-05-07T15:06:26;18.80;99.90
23124;DHT22;11731;48.592;8.858;2023-05-07T15:08:53;18.40;99.90
23124;DHT22;11731;48.592;8.858;2023-05-07T15:11:21;18.20;99.90
23124;DHT22;11731;48.592;8.858;2023-05-07T15:13:48;18.30;99.90
23124;DHT22;11731;48.592;8.858;2023-05-07T15:16:15;18.40;99.90
23124;DHT22;11731;48.592;8.858;2023-05-07T15:18:42;18.50;99.90
23124;DHT22;11731;48.592;8.858;2023-05-07T15:21:09;19.00;99.90
23124;DHT22;11731;48.592;8.858;2023-05-07T15:23:36;19.30;99.90
23124;DHT22;11731;48.592;8.858;2023-05-07T15:26:04;19.50;99.90
23124;DHT22;11731;48.592;8.858;2023-05-07T15:28:34;19.70;99.90
23124;DHT22;11731;48.592;8.858;2023-05-07T15:31:01;20.10;99.90
23124;DHT22;11731;48.592;8.858;2023-05-07T15:33:28;20.40;99.90
23124;DHT22;11731;48.592;8.858;2023-05-07T15:35:55;20.40;99.90
23124;DHT22;11731;48.592;8.858;2023-05-07T15:38:24;20.60;99.90
23124;DHT22;11731;48.592;8.858;2023-05-07T15:40:51;20.80;99.90
23124;DHT22;11731;48.592;8.858;2023-05-07T15:43:18;20.90;99.90
23124;DHT22;11731;48.592;8.858;2023-05-07T15:45:46;20.80;99.90
23124;DHT22;11731;48.592;8.858;2023-05-07T15:48:13;20.70;99.90
23124;DHT22;11731;48.592;8.858;2023-05-07T15:50:40;20.90;99.90
23124;DHT22;11731;48.592;8.858;2023-05-07T15:53:07;21.30;99.90
23124;DHT22;11731;48.592;8.858;2023-05-07T15:55:35;21.10;99.90